createdAt,value
2018-05-07T00:01:51.286Z,89.00
2018-05-07T00:04:18.765Z,89.80
2018-05-07T00:06:46.982Z,90.00
2018-05-07T00:09:14.490Z,90.00
2018-05-07T00:11:42.085Z,90.40
2018-05-07T00:14:09.490Z,90.80
2018-05-07T00:16:37.712Z,91.60
2018-05-07T00:19:05.235Z,91.60
2018-05-07T00:21:32.690Z,91.50
2018-05-07T00:24:00.253Z,92.00
2018-05-07T00:26:28.521Z,92.60
2018-05-07T00:28:55.979Z,92.60
2018-05-07T00:31:23.439Z,92.80
2018-05-07T00:33:50.891Z,92.90
2018-05-07T00:36:19.201Z,93.00
2018-05-07T00:38:47.444Z,93.20
2018-05-07T00:41:14.933Z,93.20
2018-05-07T00:43:42.397Z,93.00
2018-05-07T00:46:09.844Z,92.70
2018-05-07T00:48:38.100Z,93.40
2018-05-07T00:51:05.823Z,93.40
2018-05-07T00:53:33.292Z,92.90
2018-05-07T00:56:00.781Z,93.70
2018-05-07T00:58:28.243Z,93.40
2018-05-07T01:00:55.697Z,92.90
2018-05-07T01:03:23.248Z,92.90
2018-05-07T01:05:50.797Z,93.00
2018-05-07T01:08:19.066Z,92.60
2018-05-07T01:10:46.541Z,92.80
2018-05-07T01:13:14.004Z,93.00
2018-05-07T01:15:41.458Z,93.60
2018-05-07T01:18:09.701Z,93.60
2018-05-07T01:20:37.240Z,93.50
2018-05-07T01:23:04.752Z,94.00
2018-05-07T01:25:32.208Z,93.90
2018-05-07T01:28:00.466Z,94.10
2018-05-07T01:30:27.940Z,94.10
2018-05-07T01:32:55.398Z,94.50
2018-05-07T01:35:23.653Z,94.60
2018-05-07T01:37:51.116Z,94.60
2018-05-07T01:40:20.400Z,95.00
2018-05-07T01:42:47.861Z,95.10
2018-05-07T01:45:15.348Z,94.90
2018-05-07T01:47:42.829Z,94.20
2018-05-07T01:50:10.285Z,93.70
2018-05-07T01:52:37.752Z,94.30
2018-05-07T01:55:05.210Z,94.10
2018-05-07T01:57:32.770Z,93.90
2018-05-07T02:00:00.226Z,93.60
2018-05-07T02:02:27.691Z,94.00
2018-05-07T02:04:55.944Z,94.00
2018-05-07T02:07:23.408Z,93.90
2018-05-07T02:09:50.864Z,93.90
2018-05-07T02:12:19.103Z,94.40
2018-05-07T02:14:46.557Z,94.30
2018-05-07T02:17:14.022Z,94.10
2018-05-07T02:19:42.250Z,94.20
2018-05-07T02:22:09.712Z,94.20
2018-05-07T02:24:37.932Z,94.80
2018-05-07T02:27:05.406Z,94.80
2018-05-07T02:29:32.870Z,94.80
2018-05-07T02:32:01.096Z,94.80
2018-05-07T02:34:28.701Z,94.80
2018-05-07T02:36:56.161Z,95.30
2018-05-07T02:39:23.620Z,95.60
2018-05-07T02:41:51.872Z,96.00
2018-05-07T02:44:19.353Z,95.90
2018-05-07T02:46:46.839Z,95.20
2018-05-07T02:49:14.325Z,95.00
2018-05-07T02:51:41.810Z,94.80
2018-05-07T02:54:09.265Z,94.80
2018-05-07T02:56:36.719Z,95.00
2018-05-07T02:59:04.944Z,95.00
2018-05-07T03:01:32.397Z,95.00
2018-05-07T03:04:00.661Z,94.80
2018-05-07T03:06:28.135Z,94.80
2018-05-07T03:08:55.606Z,94.80
2018-05-07T03:11:23.100Z,94.80
2018-05-07T03:13:50.758Z,94.80
2018-05-07T03:16:18.977Z,94.70
2018-05-07T03:18:46.489Z,94.70
2018-05-07T03:21:13.952Z,94.80
2018-05-07T03:23:41.457Z,94.90
2018-05-07T03:26:08.909Z,94.60
2018-05-07T03:28:36.372Z,94.50
2018-05-07T03:31:04.594Z,93.90
2018-05-07T03:33:32.099Z,93.90
2018-05-07T03:35:59.569Z,94.30
2018-05-07T03:38:27.025Z,94.10
2018-05-07T03:40:55.257Z,94.10
2018-05-07T03:43:22.764Z,94.20
2018-05-07T03:45:50.234Z,94.10
2018-05-07T03:48:17.734Z,94.30
2018-05-07T03:50:45.189Z,94.30
2018-05-07T03:53:12.636Z,94.40
2018-05-07T03:55:40.093Z,94.30
2018-05-07T03:58:07.560Z,94.30
2018-05-07T04:00:35.041Z,94.00
2018-05-07T04:03:02.496Z,93.90
2018-05-07T04:05:30.736Z,94.30
2018-05-07T04:07:58.203Z,94.30
2018-05-07T04:10:25.701Z,94.30
2018-05-07T04:12:53.973Z,94.20
2018-05-07T04:15:21.437Z,94.40
2018-05-07T04:18:01.662Z,94.70
2018-05-07T04:20:37.872Z,94.50
2018-05-07T04:23:17.333Z,94.40
2018-05-07T04:25:44.790Z,94.00
2018-05-07T04:28:13.036Z,93.60
2018-05-07T04:30:40.492Z,93.60
2018-05-07T04:33:07.998Z,93.90
2018-05-07T04:35:35.477Z,93.80
2018-05-07T04:38:02.945Z,93.80
2018-05-07T04:40:30.397Z,93.80
2018-05-07T04:42:57.868Z,93.60
2018-05-07T04:45:25.321Z,93.30
2018-05-07T04:47:52.817Z,93.30
2018-05-07T04:50:20.296Z,93.30
2018-05-07T04:52:47.750Z,93.60
2018-05-07T04:55:15.640Z,93.30
2018-05-07T04:57:43.092Z,93.40
2018-05-07T05:00:11.329Z,94.10
2018-05-07T05:02:38.788Z,93.80
2018-05-07T05:05:07.042Z,93.50
2018-05-07T05:07:34.492Z,93.50
2018-05-07T05:10:01.988Z,93.70
2018-05-07T05:12:29.543Z,93.50
2018-05-07T05:14:57.009Z,93.60
2018-05-07T05:17:24.466Z,93.50
2018-05-07T05:19:51.928Z,93.60
2018-05-07T05:22:19.383Z,93.70
2018-05-07T05:24:46.932Z,93.90
2018-05-07T05:27:14.423Z,94.10
2018-05-07T05:29:41.852Z,94.10
2018-05-07T05:32:09.311Z,93.80
2018-05-07T05:34:37.581Z,94.20
2018-05-07T05:37:05.052Z,93.90
2018-05-07T05:39:32.507Z,94.00
2018-05-07T05:42:00.029Z,94.00
2018-05-07T05:44:27.514Z,93.80
2018-05-07T05:46:54.976Z,94.00
2018-05-07T05:49:22.473Z,94.40
2018-05-07T05:51:49.949Z,94.20
2018-05-07T05:54:17.417Z,94.10
2018-05-07T05:56:44.922Z,94.40
2018-05-07T05:59:12.384Z,94.20
2018-05-07T06:01:39.884Z,94.00
2018-05-07T06:04:07.354Z,94.00
2018-05-07T06:06:34.816Z,94.20
2018-05-07T06:09:02.354Z,93.60
2018-05-07T06:11:29.808Z,92.60
2018-05-07T06:13:57.272Z,92.30
2018-05-07T06:16:24.733Z,92.60
2018-05-07T06:18:52.259Z,92.00
2018-05-07T06:21:19.774Z,91.30
2018-05-07T06:23:47.233Z,90.80
2018-05-07T06:26:14.744Z,89.70
2018-05-07T06:28:42.206Z,86.10
2018-05-07T06:31:09.668Z,84.00
2018-05-07T06:33:37.229Z,84.20
2018-05-07T06:36:05.487Z,82.40
2018-05-07T06:38:32.974Z,82.40
2018-05-07T06:41:00.458Z,79.50
2018-05-07T06:43:27.941Z,81.00
2018-05-07T06:45:55.483Z,78.40
2018-05-07T06:48:22.912Z,78.20
2018-05-07T06:50:50.374Z,78.30
2018-05-07T06:53:17.887Z,76.80
2018-05-07T06:55:45.344Z,77.70
2018-05-07T06:58:12.805Z,75.40
2018-05-07T07:00:41.029Z,70.70
2018-05-07T07:03:08.514Z,70.70
2018-05-07T07:05:35.986Z,68.50
2018-05-07T07:08:04.271Z,65.40
2018-05-07T07:10:31.701Z,65.30
2018-05-07T07:12:59.225Z,63.40
2018-05-07T07:15:26.683Z,63.00
2018-05-07T07:17:54.145Z,62.30
2018-05-07T07:20:22.371Z,61.10
2018-05-07T07:22:49.874Z,61.10
2018-05-07T07:25:17.347Z,58.90
2018-05-07T07:27:44.804Z,52.10
2018-05-07T07:30:12.877Z,47.80
2018-05-07T07:32:40.424Z,42.50
2018-05-07T07:35:07.892Z,39.00
2018-05-07T07:37:35.353Z,36.00
2018-05-07T07:40:03.599Z,31.60
2018-05-07T07:42:31.097Z,31.50
2018-05-07T07:44:58.586Z,31.60
2018-05-07T07:47:26.067Z,29.80
2018-05-07T07:49:53.525Z,30.40
2018-05-07T07:52:21.074Z,29.50
2018-05-07T07:54:48.461Z,29.00
2018-05-07T07:57:16.688Z,26.90
2018-05-07T07:59:44.161Z,26.80
2018-05-07T08:02:11.625Z,26.00
2018-05-07T08:04:39.853Z,24.60
2018-05-07T08:07:07.366Z,24.50
2018-05-07T08:09:34.825Z,24.10
2018-05-07T08:12:02.318Z,24.30
2018-05-07T08:14:29.760Z,23.50
2018-05-07T08:16:57.992Z,23.30
2018-05-07T08:19:25.488Z,23.30
2018-05-07T08:21:52.986Z,22.90
2018-05-07T08:24:20.464Z,23.00
2018-05-07T08:26:47.945Z,23.40
2018-05-07T08:29:15.436Z,23.00
2018-05-07T08:31:42.928Z,24.00
2018-05-07T08:34:10.380Z,23.40
2018-05-07T08:36:37.968Z,22.70
2018-05-07T08:39:06.201Z,22.10
2018-05-07T08:41:33.672Z,22.30
2018-05-07T08:44:01.136Z,22.40
2018-05-07T08:46:28.612Z,22.20
2018-05-07T08:48:56.835Z,22.20
2018-05-07T08:51:24.362Z,22.20
2018-05-07T08:53:51.833Z,22.70
2018-05-07T08:56:19.320Z,23.00
2018-05-07T08:58:46.784Z,23.80
2018-05-07T09:01:14.294Z,23.60
2018-05-07T09:03:41.757Z,23.30
2018-05-07T09:06:09.256Z,22.40
2018-05-07T09:08:36.745Z,22.60
2018-05-07T09:11:04.217Z,22.80
2018-05-07T09:13:31.754Z,22.40
2018-05-07T09:15:59.189Z,22.80
2018-05-07T09:18:26.665Z,24.20
2018-05-07T09:20:54.166Z,24.00
2018-05-07T09:23:21.673Z,23.60
2018-05-07T09:25:49.138Z,24.00
2018-05-07T09:28:16.601Z,23.10
2018-05-07T09:30:44.066Z,22.70
2018-05-07T09:33:11.520Z,23.30
2018-05-07T09:35:38.981Z,22.20
2018-05-07T09:38:06.463Z,22.30
2018-05-07T09:40:34.691Z,22.10
2018-05-07T09:43:02.248Z,22.00
2018-05-07T09:45:29.738Z,21.80
2018-05-07T09:47:57.989Z,20.60
2018-05-07T09:50:25.476Z,20.60
2018-05-07T09:52:52.968Z,19.70
2018-05-07T09:55:20.432Z,19.30
2018-05-07T09:57:59.916Z,19.40
2018-05-07T10:00:33.240Z,20.30
2018-05-07T10:03:00.700Z,22.00
2018-05-07T10:05:28.160Z,20.90
2018-05-07T10:07:56.390Z,20.30
2018-05-07T10:10:23.853Z,20.30
2018-05-07T10:12:51.331Z,20.50
2018-05-07T10:15:19.589Z,20.00
2018-05-07T10:17:47.044Z,20.00
2018-05-07T10:20:15.401Z,20.40
2018-05-07T10:22:42.867Z,20.40
2018-05-07T10:25:11.123Z,19.50
2018-05-07T10:27:38.585Z,19.50
2018-05-07T10:30:06.046Z,19.20
2018-05-07T10:32:34.278Z,18.60
2018-05-07T10:35:01.786Z,18.60
2018-05-07T10:37:29.272Z,19.10
2018-05-07T10:39:56.728Z,18.20
2018-05-07T10:42:24.252Z,19.50
2018-05-07T10:44:51.733Z,18.60
2018-05-07T10:47:19.203Z,18.70
2018-05-07T10:49:46.720Z,18.30
2018-05-07T10:52:14.204Z,19.00
2018-05-07T10:54:41.668Z,20.00
2018-05-07T10:57:09.170Z,20.00
2018-05-07T10:59:36.653Z,21.10
2018-05-07T11:02:04.121Z,22.10
2018-05-07T11:04:31.608Z,22.30
2018-05-07T11:06:59.073Z,22.30
2018-05-07T11:09:26.580Z,23.20
2018-05-07T11:11:54.070Z,22.00
2018-05-07T11:14:21.573Z,21.60
2018-05-07T11:16:49.042Z,21.00
2018-05-07T11:19:16.500Z,21.30
2018-05-07T11:21:44.762Z,21.80
2018-05-07T11:24:12.237Z,21.80
2018-05-07T11:26:39.724Z,21.40
2018-05-07T11:29:07.205Z,21.50
2018-05-07T11:31:34.664Z,22.70
2018-05-07T11:34:02.182Z,21.90
2018-05-07T11:36:29.649Z,22.80
2018-05-07T11:38:57.160Z,22.40
2018-05-07T11:41:24.656Z,23.20
2018-05-07T11:43:52.911Z,23.80
2018-05-07T11:46:21.160Z,25.40
2018-05-07T11:48:48.620Z,25.40
2018-05-07T11:51:16.125Z,24.60
2018-05-07T11:53:43.613Z,23.30
2018-05-07T11:56:11.102Z,23.20
2018-05-07T11:58:38.561Z,23.30
2018-05-07T12:01:06.020Z,23.80
2018-05-07T12:03:33.488Z,23.50
2018-05-07T12:06:01.034Z,22.70
2018-05-07T12:08:28.521Z,22.40
2018-05-07T12:10:55.993Z,21.70
2018-05-07T12:13:23.496Z,21.30
2018-05-07T12:15:51.053Z,21.70
2018-05-07T12:18:18.573Z,21.80
2018-05-07T12:20:46.056Z,21.30
2018-05-07T12:23:13.593Z,21.80
2018-05-07T12:25:41.131Z,21.10
2018-05-07T12:28:08.591Z,22.10
2018-05-07T12:30:36.132Z,21.20
2018-05-07T12:33:03.600Z,21.30
2018-05-07T12:35:32.622Z,19.90
2018-05-07T12:38:00.087Z,19.80
2018-05-07T12:40:27.557Z,20.20
2018-05-07T12:42:55.068Z,20.10
2018-05-07T12:45:22.533Z,21.00
2018-05-07T12:47:49.994Z,21.50
2018-05-07T12:50:18.259Z,20.90
2018-05-07T12:52:45.768Z,20.50
2018-05-07T12:55:13.320Z,20.60
2018-05-07T12:57:40.789Z,19.40
2018-05-07T13:02:41.196Z,20.70
2018-05-07T13:05:08.657Z,21.70
2018-05-07T13:07:36.147Z,21.30
2018-05-07T13:10:03.609Z,23.20
2018-05-07T13:12:31.844Z,23.00
2018-05-07T13:14:59.345Z,23.00
2018-05-07T13:17:26.810Z,22.60
2018-05-07T13:19:54.268Z,22.30
2018-05-07T13:22:22.493Z,21.50
2018-05-07T13:24:50.101Z,21.50
2018-05-07T13:27:17.500Z,21.60
2018-05-07T13:29:44.961Z,20.90
2018-05-07T13:32:12.477Z,20.80
2018-05-07T13:34:39.962Z,20.70
2018-05-07T13:37:07.426Z,21.00
2018-05-07T13:39:34.883Z,21.60
2018-05-07T13:42:02.339Z,19.80
2018-05-07T13:44:29.817Z,21.20
2018-05-07T13:46:57.312Z,21.80
2018-05-07T13:49:24.781Z,21.60
2018-05-07T13:51:52.240Z,21.00
2018-05-07T13:54:19.708Z,21.10
2018-05-07T13:56:47.964Z,22.60
2018-05-07T13:59:15.424Z,22.60
2018-05-07T14:01:42.934Z,22.90
2018-05-07T14:04:10.414Z,21.90
2018-05-07T14:06:37.900Z,21.30
2018-05-07T14:09:05.376Z,22.10
2018-05-07T14:11:32.837Z,22.00
2018-05-07T14:14:00.300Z,21.60
2018-05-07T14:16:28.525Z,20.10
2018-05-07T14:18:55.998Z,20.10
2018-05-07T14:21:23.462Z,20.80
2018-05-07T14:23:51.839Z,20.00
2018-05-07T14:26:19.391Z,20.00
2018-05-07T14:28:46.809Z,20.20
2018-05-07T14:31:15.776Z,20.30
2018-05-07T14:33:44.032Z,19.90
2018-05-07T14:36:11.493Z,19.90
2018-05-07T14:38:38.966Z,21.00
2018-05-07T14:41:07.042Z,21.30
2018-05-07T14:43:35.343Z,20.90
2018-05-07T14:46:03.575Z,20.60
2018-05-07T14:48:31.048Z,20.60
2018-05-07T14:50:58.554Z,21.40
2018-05-07T14:53:26.057Z,21.00
2018-05-07T14:55:55.058Z,21.80
2018-05-07T14:58:22.757Z,19.70
2018-05-07T15:00:50.529Z,20.40
2018-05-07T15:03:17.989Z,19.50
2018-05-07T15:05:46.232Z,20.40
2018-05-07T15:08:13.698Z,20.30
2018-05-07T15:10:41.927Z,21.40
2018-05-07T15:13:09.380Z,21.80
2018-05-07T15:15:36.994Z,20.50
2018-05-07T15:18:04.396Z,20.60
2018-05-07T15:20:31.979Z,21.80
2018-05-07T15:22:59.437Z,22.30
2018-05-07T15:25:26.898Z,22.40
2018-05-07T15:27:54.351Z,21.90
2018-05-07T15:30:21.832Z,22.30
2018-05-07T15:32:50.053Z,21.40
2018-05-07T15:35:18.299Z,21.30
2018-05-07T15:37:46.541Z,20.80
2018-05-07T15:40:14.088Z,20.80
2018-05-07T15:42:41.543Z,21.40
2018-05-07T15:45:09.813Z,23.10
2018-05-07T15:47:37.273Z,23.10
2018-05-07T15:50:04.740Z,22.10
2018-05-07T15:52:32.372Z,21.70
2018-05-07T15:54:59.875Z,22.10
2018-05-07T15:57:27.349Z,21.30
2018-05-07T15:59:54.818Z,20.40
2018-05-07T16:02:22.300Z,20.70
2018-05-07T16:04:49.853Z,20.10
2018-05-07T16:07:17.317Z,21.50
2018-05-07T16:09:44.830Z,21.60
2018-05-07T16:12:12.322Z,22.00
2018-05-07T16:14:39.783Z,21.80
2018-05-07T16:17:07.245Z,22.20
2018-05-07T16:19:34.759Z,22.00
2018-05-07T16:22:02.265Z,21.70
2018-05-07T16:24:29.718Z,22.20
2018-05-07T16:26:57.206Z,22.80
2018-05-07T16:29:24.661Z,23.30
2018-05-07T16:31:52.893Z,23.50
2018-05-07T16:34:20.551Z,22.90
2018-05-07T16:36:48.775Z,23.80
2018-05-07T16:39:17.019Z,23.90
2018-05-07T16:41:44.496Z,23.90
2018-05-07T16:44:11.949Z,23.60
2018-05-07T16:46:39.445Z,23.50
2018-05-07T16:49:06.932Z,24.00
2018-05-07T16:51:34.383Z,23.40
2018-05-07T16:54:02.612Z,24.20
2018-05-07T16:56:30.113Z,24.20
2018-05-07T16:58:57.572Z,24.40
2018-05-07T17:01:25.029Z,24.70
2018-05-07T17:03:53.284Z,25.40
2018-05-07T17:06:20.741Z,25.40
2018-05-07T17:08:48.993Z,25.30
2018-05-07T17:11:16.457Z,25.30
2018-05-07T17:13:43.983Z,25.30
2018-05-07T17:16:11.441Z,25.10
2018-05-07T17:18:38.978Z,25.40
2018-05-07T17:21:06.458Z,26.10
2018-05-07T17:23:34.689Z,26.70
2018-05-07T17:26:02.167Z,26.60
2018-05-07T17:28:29.677Z,26.70
2018-05-07T17:30:57.138Z,27.00
2018-05-07T17:33:24.623Z,27.50
2018-05-07T17:35:53.654Z,27.70
2018-05-07T17:38:21.147Z,27.70
2018-05-07T17:40:48.712Z,27.90
2018-05-07T17:43:16.201Z,28.20
2018-05-07T17:46:04.466Z,28.60
2018-05-07T17:48:43.841Z,28.80
2018-05-07T17:51:11.357Z,30.90
2018-05-07T17:53:39.537Z,30.00
2018-05-07T17:56:07.937Z,29.90
2018-05-07T17:58:35.436Z,30.10
2018-05-07T18:01:02.889Z,30.30
2018-05-07T18:03:30.420Z,30.60
2018-05-07T18:05:57.892Z,30.70
2018-05-07T18:08:25.349Z,31.10
2018-05-07T18:10:52.898Z,31.00
2018-05-07T18:13:21.190Z,31.70
2018-05-07T18:15:48.669Z,31.60
2018-05-07T18:18:16.130Z,31.40
2018-05-07T18:20:43.625Z,31.30
2018-05-07T18:23:11.120Z,31.60
2018-05-07T18:25:38.585Z,31.60
2018-05-07T18:28:06.040Z,32.30
2018-05-07T18:30:34.299Z,32.80
2018-05-07T18:33:02.354Z,32.80
2018-05-07T18:35:29.909Z,32.70
2018-05-07T18:37:57.758Z,32.70
2018-05-07T18:40:25.212Z,33.20
2018-05-07T18:42:52.680Z,33.20
2018-05-07T18:45:20.157Z,33.10
2018-05-07T18:47:47.644Z,33.20
2018-05-07T18:50:15.144Z,33.60
2018-05-07T18:52:42.609Z,33.50
2018-05-07T18:55:10.176Z,33.80
2018-05-07T18:57:37.600Z,34.70
2018-05-07T19:00:05.057Z,37.20
2018-05-07T19:02:32.524Z,37.40
2018-05-07T19:05:00.041Z,38.70
2018-05-07T19:07:27.525Z,39.60
2018-05-07T19:09:55.006Z,40.60
2018-05-07T19:12:22.492Z,40.50
2018-05-07T19:14:49.958Z,40.70
2018-05-07T19:17:17.437Z,42.10
2018-05-07T19:19:44.978Z,41.90
2018-05-07T19:22:13.165Z,42.20
2018-05-07T19:24:40.620Z,42.10
2018-05-07T19:27:08.100Z,42.80
2018-05-07T19:29:35.570Z,44.00
2018-05-07T19:32:03.032Z,44.70
2018-05-07T19:34:31.276Z,46.70
2018-05-07T19:36:58.773Z,46.60
2018-05-07T19:39:26.257Z,46.90
2018-05-07T19:41:53.733Z,47.20
2018-05-07T19:44:21.193Z,48.50
2018-05-07T19:46:49.416Z,50.00
2018-05-07T19:49:16.885Z,50.10
2018-05-07T19:51:44.353Z,51.10
2018-05-07T19:54:13.317Z,51.90
2018-05-07T19:56:40.825Z,51.70
2018-05-07T19:59:08.284Z,52.90
2018-05-07T20:01:37.304Z,54.30
2018-05-07T20:04:04.772Z,54.30
2018-05-07T20:06:33.002Z,55.00
2018-05-07T20:09:00.460Z,54.90
2018-05-07T20:11:27.963Z,55.90
2018-05-07T20:13:56.184Z,57.40
2018-05-07T20:16:23.642Z,57.40
2018-05-07T20:18:51.865Z,59.40
2018-05-07T20:21:19.340Z,59.30
2018-05-07T20:23:47.564Z,61.10
2018-05-07T20:26:15.025Z,60.90
2018-05-07T20:28:42.475Z,61.10
2018-05-07T20:31:09.975Z,61.60
2018-05-07T20:33:37.489Z,63.00
2018-05-07T20:36:05.745Z,64.30
2018-05-07T20:38:33.204Z,64.30
2018-05-07T20:41:00.665Z,64.30
2018-05-07T20:43:28.896Z,65.30
2018-05-07T20:45:56.355Z,65.20
2018-05-07T20:48:24.651Z,67.70
2018-05-07T20:50:52.196Z,67.60
2018-05-07T20:53:19.668Z,68.00
2018-05-07T20:55:47.132Z,68.50
2018-05-07T20:58:14.595Z,68.60
2018-05-07T21:00:42.853Z,69.30
2018-05-07T21:03:10.312Z,69.30
2018-05-07T21:05:37.769Z,69.60
2018-05-07T21:08:05.229Z,70.40
2018-05-07T21:10:32.710Z,70.70
2018-05-07T21:13:00.199Z,70.20
2018-05-07T21:15:27.746Z,71.40
2018-05-07T21:35:12.181Z,74.50
2018-05-07T21:37:39.644Z,75.10
2018-05-07T21:40:07.114Z,75.10
2018-05-07T21:42:34.575Z,76.10
2018-05-07T21:45:02.146Z,77.20
2018-05-07T21:47:29.617Z,75.80
2018-05-07T21:49:57.085Z,76.90
2018-05-07T21:52:24.550Z,77.00
2018-05-07T21:54:52.027Z,77.70
2018-05-07T21:57:19.483Z,77.80
2018-05-07T21:59:46.948Z,77.10
2018-05-07T22:02:14.431Z,78.10
2018-05-07T22:04:41.901Z,77.90
2018-05-07T22:07:09.374Z,78.30
2018-05-07T22:09:36.840Z,79.90
2018-05-07T22:12:04.304Z,80.40
2018-05-07T22:14:31.818Z,81.60
2018-05-07T22:16:59.284Z,82.30
2018-05-07T22:19:26.804Z,82.70
2018-05-07T22:21:54.265Z,81.90
2018-05-07T22:24:21.735Z,82.50
2018-05-07T22:26:49.211Z,81.40
2018-05-07T22:29:16.672Z,81.40
2018-05-07T22:31:44.145Z,82.70
2018-05-07T22:34:11.615Z,81.90
2018-05-07T22:36:39.072Z,82.80
2018-05-07T22:39:06.573Z,82.40
2018-05-07T22:41:34.017Z,82.40
2018-05-07T22:44:01.483Z,83.10
2018-05-07T22:46:28.941Z,81.60
2018-05-07T22:48:56.557Z,81.10
2018-05-07T22:51:23.943Z,83.10
2018-05-07T22:53:51.411Z,82.60
2018-05-07T22:56:18.878Z,81.10
2018-05-07T22:58:46.354Z,82.80
2018-05-07T23:01:13.820Z,81.90
2018-05-07T23:03:41.311Z,82.20
2018-05-07T23:23:26.029Z,82.20
2018-05-07T23:25:53.516Z,82.10
2018-05-07T23:28:20.981Z,82.10
2018-05-07T23:30:48.532Z,82.40
2018-05-07T23:33:16.000Z,82.20
2018-05-07T23:35:43.467Z,82.40
2018-05-07T23:38:10.933Z,82.80
2018-05-07T23:40:38.480Z,82.00
2018-05-07T23:43:06.709Z,83.20
2018-05-07T23:45:34.177Z,83.20
2018-05-07T23:48:01.743Z,82.70
2018-05-07T23:50:29.211Z,83.30
2018-05-07T23:52:56.763Z,82.90
2018-05-07T23:55:24.235Z,83.40
2018-05-07T23:57:51.777Z,84.20
